sensor_id;sensor_type;location;lat;lon;timestamp;pressure;altitude;pressure_sealevel;temperature;humidity
73633;BME280;61927;50.080;14.418;2023-02-28T00:01:21;100631.09;;;1.78;57.89
73633;BME280;61927;50.080;14.418;2023-02-28T00:03:47;100624.16;;;1.71;58.14
73633;BME280;61927;50.080;14.418;2023-02-28T00:06:12;100632.88;;;1.72;58.12
73633;BME280;61927;50.080;14.418;2023-02-28T00:08:38;100630.31;;;1.67;57.85
73633;BME280;61927;50.080;14.418;2023-02-28T00:11:10;100629.44;;;1.64;58.37
73633;BME280;61927;50.080;14.418;2023-02-28T00:13:42;100620.72;;;1.65;58.45
73633;BME280;61927;50.080;14.418;2023-02-28T00:16:13;100627.69;;;1.66;58.76
73633;BME280;61927;50.080;14.418;2023-02-28T00:18:41;100619.84;;;1.66;58.78
73633;BME280;61927;50.080;14.418;2023-02-28T00:21:07;100624.13;;;1.77;58.42
73633;BME280;61927;50.080;14.418;2023-02-28T00:23:33;100628.47;;;1.78;57.97
73633;BME280;61927;50.080;14.418;2023-02-28T00:25:59;100625.03;;;1.73;58.06
73633;BME280;61927;50.080;14.418;2023-02-28T00:28:25;100623.28;;;1.72;58.15
73633;BME280;61927;50.080;14.418;2023-02-28T00:30:51;100622.41;;;1.72;58.39
73633;BME280;61927;50.080;14.418;2023-02-28T00:33:16;100620.63;;;1.77;58.72
73633;BME280;61927;50.080;14.418;2023-02-28T00:35:42;100624.94;;;1.85;57.80
73633;BME280;61927;50.080;14.418;2023-02-28T00:38:09;100629.25;;;1.91;57.77
73633;BME280;61927;50.080;14.418;2023-02-28T00:40:34;100619.66;;;1.91;57.59
73633;BME280;61927;50.080;14.418;2023-02-28T00:43:00;100631.84;;;1.92;57.69
73633;BME280;61927;50.080;14.418;2023-02-28T00:45:26;100629.28;;;1.86;57.80
73633;BME280;61927;50.080;14.418;2023-02-28T00:47:51;100621.47;;;1.80;57.84
73633;BME280;61927;50.080;14.418;2023-02-28T00:50:18;100623.28;;;1.72;58.20
73633;BME280;61927;50.080;14.418;2023-02-28T00:52:44;100622.44;;;1.69;58.33
73633;BME280;61927;50.080;14.418;2023-02-28T00:55:10;100618.97;;;1.67;58.17
73633;BME280;61927;50.080;14.418;2023-02-28T00:57:35;100618.03;;;1.75;58.86
73633;BME280;61927;50.080;14.418;2023-02-28T01:00:01;100617.97;;;1.84;58.03
73633;BME280;61927;50.080;14.418;2023-02-28T01:02:28;100615.25;;;1.95;57.52
73633;BME280;61927;50.080;14.418;2023-02-28T01:04:53;100616.13;;;1.96;57.36
73633;BME280;61927;50.080;14.418;2023-02-28T01:07:19;100625.78;;;1.87;57.53
73633;BME280;61927;50.080;14.418;2023-02-28T01:09:44;100618.84;;;1.82;57.95
73633;BME280;61927;50.080;14.418;2023-02-28T01:12:10;100618.03;;;1.75;57.98
73633;BME280;61927;50.080;14.418;2023-02-28T01:14:36;100613.63;;;1.80;57.85
73633;BME280;61927;50.080;14.418;2023-02-28T01:17:02;100611.00;;;1.82;57.46
73633;BME280;61927;50.080;14.418;2023-02-28T01:19:28;100618.00;;;1.78;58.05
73633;BME280;61927;50.080;14.418;2023-02-28T01:21:54;100611.06;;;1.74;57.95
73633;BME280;61927;50.080;14.418;2023-02-28T01:24:19;100605.81;;;1.76;57.95
73633;BME280;61927;50.080;14.418;2023-02-28T01:26:45;100615.44;;;1.72;58.11
73633;BME280;61927;50.080;14.418;2023-02-28T01:29:10;100618.97;;;1.67;58.60
73633;BME280;61927;50.080;14.418;2023-02-28T01:31:36;100615.44;;;1.72;58.73
73633;BME280;61927;50.080;14.418;2023-02-28T01:34:02;100606.63;;;1.85;58.24
73633;BME280;61927;50.080;14.418;2023-02-28T01:36:28;100610.94;;;1.89;57.55
73633;BME280;61927;50.080;14.418;2023-02-28T01:38:54;100611.03;;;1.79;58.38
73633;BME280;61927;50.080;14.418;2023-02-28T01:41:29;100618.88;;;1.79;58.53
73633;BME280;61927;50.080;14.418;2023-02-28T01:43:57;100613.69;;;1.71;58.17
73633;BME280;61927;50.080;14.418;2023-02-28T01:46:23;100619.78;;;1.76;58.47
73633;BME280;61927;50.080;14.418;2023-02-28T01:49:09;100610.06;;;1.89;58.35
73633;BME280;61927;50.080;14.418;2023-02-28T01:51:41;100603.06;;;1.91;57.90
73633;BME280;61927;50.080;14.418;2023-02-28T01:54:14;100606.59;;;1.87;57.90
73633;BME280;61927;50.080;14.418;2023-02-28T01:56:45;100603.13;;;1.83;58.07
73633;BME280;61927;50.080;14.418;2023-02-28T01:59:14;100598.78;;;1.84;57.85
73633;BME280;61927;50.080;14.418;2023-02-28T02:01:43;100594.41;;;1.86;58.30
73633;BME280;61927;50.080;14.418;2023-02-28T02:04:09;100598.72;;;1.90;57.91
73633;BME280;61927;50.080;14.418;2023-02-28T02:06:41;100593.50;;;1.90;57.68
73633;BME280;61927;50.080;14.418;2023-02-28T02:09:07;100594.34;;;1.90;57.68
73633;BME280;61927;50.080;14.418;2023-02-28T02:11:34;100600.50;;;1.86;57.53
73633;BME280;61927;50.080;14.418;2023-02-28T02:16:38;100588.28;;;1.88;57.54
73633;BME280;61927;50.080;14.418;2023-02-28T02:19:29;100591.72;;;1.93;56.66
73633;BME280;61927;50.080;14.418;2023-02-28T02:22:17;100585.63;;;1.90;57.43
73633;BME280;61927;50.080;14.418;2023-02-28T02:27:45;100589.22;;;1.80;57.18
73633;BME280;61927;50.080;14.418;2023-02-28T02:35:55;100595.56;;;1.47;57.41
73633;BME280;61927;50.080;14.418;2023-02-28T02:41:04;100598.22;;;1.41;57.65
73633;BME280;61927;50.080;14.418;2023-02-28T02:46:35;100588.63;;;1.43;57.86
73633;BME280;61927;50.080;14.418;2023-02-28T02:49:06;100599.97;;;1.37;57.52
73633;BME280;61927;50.080;14.418;2023-02-28T02:51:34;100592.16;;;1.36;57.65
73633;BME280;61927;50.080;14.418;2023-02-28T02:54:14;100592.97;;;1.41;58.20
73633;BME280;61927;50.080;14.418;2023-02-28T02:56:44;100598.22;;;1.39;57.63
73633;BME280;61927;50.080;14.418;2023-02-28T02:59:12;100593.91;;;1.34;58.07
73633;BME280;61927;50.080;14.418;2023-02-28T03:01:40;100598.31;;;1.27;57.27
73633;BME280;61927;50.080;14.418;2023-02-28T03:04:11;100601.84;;;1.17;58.52
73633;BME280;61927;50.080;14.418;2023-02-28T03:06:38;100607.97;;;1.13;58.57
73633;BME280;61927;50.080;14.418;2023-02-28T03:09:04;100608.84;;;1.12;58.69
73633;BME280;61927;50.080;14.418;2023-02-28T03:11:30;100610.59;;;1.08;58.89
73633;BME280;61927;50.080;14.418;2023-02-28T03:14:07;100606.25;;;1.07;58.51
73633;BME280;61927;50.080;14.418;2023-02-28T03:24:37;100604.50;;;1.06;57.96
73633;BME280;61927;50.080;14.418;2023-02-28T03:27:10;100605.41;;;1.01;58.28
73633;BME280;61927;50.080;14.418;2023-02-28T03:29:50;100605.44;;;0.96;58.63
73633;BME280;61927;50.080;14.418;2023-02-28T03:32:34;100611.56;;;0.86;58.01
73633;BME280;61927;50.080;14.418;2023-02-28T03:35:09;100611.59;;;0.77;58.61
73633;BME280;61927;50.080;14.418;2023-02-28T03:37:38;100611.63;;;0.68;58.69
73633;BME280;61927;50.080;14.418;2023-02-28T03:40:13;100608.16;;;0.62;58.98
73633;BME280;61927;50.080;14.418;2023-02-28T03:42:42;100610.78;;;0.61;59.50
73633;BME280;61927;50.080;14.418;2023-02-28T03:45:33;100607.31;;;0.57;59.79
73633;BME280;61927;50.080;14.418;2023-02-28T03:48:12;100606.44;;;0.61;60.29
73633;BME280;61927;50.080;14.418;2023-02-28T03:50:41;100603.81;;;0.58;59.54
73633;BME280;61927;50.080;14.418;2023-02-28T03:55:48;100600.34;;;0.53;59.81
73633;BME280;61927;50.080;14.418;2023-02-28T03:58:35;100604.72;;;0.48;59.61
73633;BME280;61927;50.080;14.418;2023-02-28T04:01:09;100601.25;;;0.46;59.99
73633;BME280;61927;50.080;14.418;2023-02-28T04:03:36;100609.09;;;0.42;59.83
73633;BME280;61927;50.080;14.418;2023-02-28T04:06:02;100611.69;;;0.46;59.86
73633;BME280;61927;50.080;14.418;2023-02-28T04:08:29;100610.84;;;0.41;60.29
73633;BME280;61927;50.080;14.418;2023-02-28T04:11:05;100614.31;;;0.42;59.74
73633;BME280;61927;50.080;14.418;2023-02-28T04:13:31;100612.59;;;0.38;60.82
73633;BME280;61927;50.080;14.418;2023-02-28T04:15:57;100609.09;;;0.42;60.08
73633;BME280;61927;50.080;14.418;2023-02-28T04:18:22;100616.06;;;0.41;60.05
73633;BME280;61927;50.080;14.418;2023-02-28T04:20:48;100613.47;;;0.37;60.21
73633;BME280;61927;50.080;14.418;2023-02-28T04:23:14;100615.19;;;0.36;60.23
73633;BME280;61927;50.080;14.418;2023-02-28T04:25:39;100612.56;;;0.41;59.93
73633;BME280;61927;50.080;14.418;2023-02-28T04:28:06;100616.06;;;0.43;60.08
73633;BME280;61927;50.080;14.418;2023-02-28T04:30:32;100613.44;;;0.38;59.46
73633;BME280;61927;50.080;14.418;2023-02-28T04:32:58;100618.69;;;0.37;59.38
73633;BME280;61927;50.080;14.418;2023-02-28T04:35:24;100618.69;;;0.32;59.87
73633;BME280;61927;50.080;14.418;2023-02-28T04:37:49;100618.69;;;0.29;59.71
73633;BME280;61927;50.080;14.418;2023-02-28T04:40:15;100616.94;;;0.28;60.01
73633;BME280;61927;50.080;14.418;2023-02-28T04:42:40;100618.69;;;0.26;60.37
73633;BME280;61927;50.080;14.418;2023-02-28T04:45:07;100619.56;;;0.23;59.96
73633;BME280;61927;50.080;14.418;2023-02-28T04:47:35;100621.31;;;0.20;59.95
73633;BME280;61927;50.080;14.418;2023-02-28T04:50:01;100623.91;;;0.20;60.06
73633;BME280;61927;50.080;14.418;2023-02-28T04:52:27;100627.41;;;0.19;59.80
73633;BME280;61927;50.080;14.418;2023-02-28T04:54:53;100629.16;;;0.18;60.18
73633;BME280;61927;50.080;14.418;2023-02-28T04:57:18;100625.66;;;0.12;60.22
73633;BME280;61927;50.080;14.418;2023-02-28T04:59:44;100630.88;;;0.10;60.82
73633;BME280;61927;50.080;14.418;2023-02-28T05:02:10;100630.03;;;0.11;60.35
73633;BME280;61927;50.080;14.418;2023-02-28T05:04:35;100637.84;;;0.16;60.08
73633;BME280;61927;50.080;14.418;2023-02-28T05:07:02;100635.25;;;0.14;60.47
73633;BME280;61927;50.080;14.418;2023-02-28T05:09:28;100636.97;;;0.09;60.26
73633;BME280;61927;50.080;14.418;2023-02-28T05:11:54;100640.47;;;0.07;60.93
73633;BME280;61927;50.080;14.418;2023-02-28T05:14:20;100648.28;;;0.01;60.36
73633;BME280;61927;50.080;14.418;2023-02-28T05:16:46;100645.69;;;0.02;60.74
73633;BME280;61927;50.080;14.418;2023-02-28T05:19:11;100646.56;;;0.06;60.75
73633;BME280;61927;50.080;14.418;2023-02-28T05:21:41;100644.81;;;0.03;60.36
73633;BME280;61927;50.080;14.418;2023-02-28T05:24:13;100650.03;;;-0.05;60.47
73633;BME280;61927;50.080;14.418;2023-02-28T05:26:42;100653.50;;;-0.06;60.43
73633;BME280;61927;50.080;14.418;2023-02-28T05:29:09;100650.91;;;-0.12;60.88
73633;BME280;61927;50.080;14.418;2023-02-28T05:31:35;100650.88;;;-0.19;60.78
73633;BME280;61927;50.080;14.418;2023-02-28T05:34:00;100656.09;;;-0.19;60.77
73633;BME280;61927;50.080;14.418;2023-02-28T05:36:26;100656.97;;;-0.13;61.23
73633;BME280;61927;50.080;14.418;2023-02-28T05:38:51;100657.84;;;-0.08;60.28
73633;BME280;61927;50.080;14.418;2023-02-28T05:41:18;100666.56;;;-0.10;60.28
73633;BME280;61927;50.080;14.418;2023-02-28T05:43:47;100664.81;;;-0.11;60.25
73633;BME280;61927;50.080;14.418;2023-02-28T05:46:13;100665.69;;;-0.11;60.66
73633;BME280;61927;50.080;14.418;2023-02-28T05:48:41;100671.75;;;-0.13;60.25
73633;BME280;61927;50.080;14.418;2023-02-28T05:51:08;100670.91;;;-0.08;60.73
73633;BME280;61927;50.080;14.418;2023-02-28T05:53:34;100668.28;;;-0.06;59.96
73633;BME280;61927;50.080;14.418;2023-02-28T05:56:00;100672.63;;;0.01;60.02
73633;BME280;61927;50.080;14.418;2023-02-28T05:58:26;100677.00;;;-0.07;59.54
73633;BME280;61927;50.080;14.418;2023-02-28T06:01:00;100683.94;;;-0.06;59.78
73633;BME280;61927;50.080;14.418;2023-02-28T06:03:27;100676.13;;;0.02;59.85
73633;BME280;61927;50.080;14.418;2023-02-28T06:05:53;100681.34;;;0.08;60.01
73633;BME280;61927;50.080;14.418;2023-02-28T06:08:18;100687.44;;;0.05;59.60
73633;BME280;61927;50.080;14.418;2023-02-28T06:10:44;100691.78;;;0.02;59.88
73633;BME280;61927;50.080;14.418;2023-02-28T06:13:10;100686.56;;;0.00;59.68
73633;BME280;61927;50.080;14.418;2023-02-28T06:15:38;100693.50;;;-0.04;60.03
73633;BME280;61927;50.080;14.418;2023-02-28T06:18:04;100692.63;;;-0.09;59.11
73633;BME280;61927;50.080;14.418;2023-02-28T06:20:30;100693.50;;;-0.13;59.90
73633;BME280;61927;50.080;14.418;2023-02-28T06:22:56;100697.84;;;-0.16;59.75
73633;BME280;61927;50.080;14.418;2023-02-28T06:25:25;100703.94;;;-0.16;58.69
73633;BME280;61927;50.080;14.418;2023-02-28T06:27:51;100708.28;;;-0.15;59.50
73633;BME280;61927;50.080;14.418;2023-02-28T06:30:17;100708.28;;;-0.09;59.15
73633;BME280;61927;50.080;14.418;2023-02-28T06:32:42;100711.78;;;-0.01;58.69
73633;BME280;61927;50.080;14.418;2023-02-28T06:35:08;100708.31;;;0.04;58.74
73633;BME280;61927;50.080;14.418;2023-02-28T06:37:33;100717.88;;;0.08;58.26
73633;BME280;61927;50.080;14.418;2023-02-28T06:39:59;100711.78;;;0.06;58.47
73633;BME280;61927;50.080;14.418;2023-02-28T06:42:25;100718.75;;;0.13;58.23
73633;BME280;61927;50.080;14.418;2023-02-28T06:44:55;100717.88;;;0.11;58.50
73633;BME280;61927;50.080;14.418;2023-02-28T06:47:21;100723.97;;;0.08;58.76
73633;BME280;61927;50.080;14.418;2023-02-28T06:49:46;100732.66;;;0.09;58.03
73633;BME280;61927;50.080;14.418;2023-02-28T06:52:12;100731.78;;;0.07;58.20
73633;BME280;61927;50.080;14.418;2023-02-28T06:54:38;100732.66;;;0.04;58.31
73633;BME280;61927;50.080;14.418;2023-02-28T06:57:03;100734.41;;;0.05;57.79
73633;BME280;61927;50.080;14.418;2023-02-28T06:59:29;100736.13;;;-0.03;57.90
73633;BME280;61927;50.080;14.418;2023-02-28T07:01:55;100734.38;;;-0.04;58.21
73633;BME280;61927;50.080;14.418;2023-02-28T07:04:21;100739.63;;;-0.01;57.63
73633;BME280;61927;50.080;14.418;2023-02-28T07:06:47;100745.72;;;0.03;57.76
73633;BME280;61927;50.080;14.418;2023-02-28T07:09:12;100738.75;;;0.20;57.83
73633;BME280;61927;50.080;14.418;2023-02-28T07:11:39;100737.91;;;0.16;57.25
73633;BME280;61927;50.080;14.418;2023-02-28T07:14:06;100737.91;;;0.22;56.81
73633;BME280;61927;50.080;14.418;2023-02-28T07:16:32;100739.63;;;0.20;56.88
73633;BME280;61927;50.080;14.418;2023-02-28T07:18:58;100737.03;;;0.22;56.97
73633;BME280;61927;50.080;14.418;2023-02-28T07:21:24;100742.25;;;0.22;57.02
73633;BME280;61927;50.080;14.418;2023-02-28T07:23:50;100735.28;;;0.22;56.76
73633;BME280;61927;50.080;14.418;2023-02-28T07:26:18;100740.50;;;0.21;56.73
73633;BME280;61927;50.080;14.418;2023-02-28T07:28:45;100744.00;;;0.20;56.50
73633;BME280;61927;50.080;14.418;2023-02-28T07:31:12;100744.00;;;0.29;57.08
73633;BME280;61927;50.080;14.418;2023-02-28T07:33:39;100745.72;;;0.30;55.99
73633;BME280;61927;50.080;14.418;2023-02-28T07:36:08;100751.81;;;0.21;56.30
73633;BME280;61927;50.080;14.418;2023-02-28T07:38:34;100759.66;;;0.23;57.02
73633;BME280;61927;50.080;14.418;2023-02-28T07:41:01;100753.56;;;0.33;56.98
73633;BME280;61927;50.080;14.418;2023-02-28T07:43:30;100760.53;;;0.39;56.56
73633;BME280;61927;50.080;14.418;2023-02-28T07:46:08;100757.91;;;0.48;56.76
73633;BME280;61927;50.080;14.418;2023-02-28T07:48:34;100760.53;;;0.49;55.15
73633;BME280;61927;50.080;14.418;2023-02-28T07:51:00;100762.28;;;0.55;56.37
73633;BME280;61927;50.080;14.418;2023-02-28T07:53:26;100760.53;;;0.57;55.81
73633;BME280;61927;50.080;14.418;2023-02-28T07:55:56;100759.66;;;0.58;55.66
73633;BME280;61927;50.080;14.418;2023-02-28T07:58:22;100763.16;;;0.54;56.02
73633;BME280;61927;50.080;14.418;2023-02-28T08:00:49;100762.28;;;0.47;55.33
73633;BME280;61927;50.080;14.418;2023-02-28T08:03:18;100759.66;;;0.52;55.85
73633;BME280;61927;50.080;14.418;2023-02-28T08:05:44;100764.00;;;0.54;55.31
73633;BME280;61927;50.080;14.418;2023-02-28T08:08:09;100756.19;;;0.57;55.30
73633;BME280;61927;50.080;14.418;2023-02-28T08:10:36;100758.78;;;0.63;55.04
73633;BME280;61927;50.080;14.418;2023-02-28T08:13:01;100757.03;;;0.70;54.72
73633;BME280;61927;50.080;14.418;2023-02-28T08:15:27;100760.53;;;0.71;53.78
73633;BME280;61927;50.080;14.418;2023-02-28T08:17:52;100758.78;;;0.73;53.60
73633;BME280;61927;50.080;14.418;2023-02-28T08:20:18;100750.94;;;0.74;54.79
73633;BME280;61927;50.080;14.418;2023-02-28T08:22:44;100749.19;;;0.79;53.86
73633;BME280;61927;50.080;14.418;2023-02-28T08:25:10;100746.59;;;0.79;53.29
73633;BME280;61927;50.080;14.418;2023-02-28T08:27:36;100752.66;;;0.83;52.63
73633;BME280;61927;50.080;14.418;2023-02-28T08:30:03;100747.44;;;0.83;51.94
73633;BME280;61927;50.080;14.418;2023-02-28T08:32:29;100756.16;;;0.86;52.60
73633;BME280;61927;50.080;14.418;2023-02-28T08:34:54;100757.88;;;0.89;53.13
73633;BME280;61927;50.080;14.418;2023-02-28T08:37:20;100749.19;;;0.85;51.94
73633;BME280;61927;50.080;14.418;2023-02-28T08:39:46;100747.44;;;0.81;52.77
73633;BME280;61927;50.080;14.418;2023-02-28T08:42:11;100747.44;;;0.83;52.22
73633;BME280;61927;50.080;14.418;2023-02-28T08:44:37;100743.06;;;0.94;52.13
73633;BME280;61927;50.080;14.418;2023-02-28T08:47:02;100751.78;;;0.96;52.18
73633;BME280;61927;50.080;14.418;2023-02-28T08:49:28;100753.50;;;0.97;52.72
73633;BME280;61927;50.080;14.418;2023-02-28T08:51:54;100746.53;;;1.07;52.19
73633;BME280;61927;50.080;14.418;2023-02-28T08:54:20;100755.22;;;1.10;51.45
73633;BME280;61927;50.080;14.418;2023-02-28T08:56:46;100744.75;;;1.16;52.01
73633;BME280;61927;50.080;14.418;2023-02-28T08:59:13;100748.22;;;1.21;51.59
73633;BME280;61927;50.080;14.418;2023-02-28T09:01:39;100749.97;;;1.19;51.28
73633;BME280;61927;50.080;14.418;2023-02-28T09:04:07;100748.22;;;1.21;50.97
73633;BME280;61927;50.080;14.418;2023-02-28T09:06:34;100749.94;;;1.25;51.15
73633;BME280;61927;50.080;14.418;2023-02-28T09:09:00;100748.19;;;1.27;51.26
73633;BME280;61927;50.080;14.418;2023-02-28T09:11:27;100746.44;;;1.33;50.98
73633;BME280;61927;50.080;14.418;2023-02-28T09:13:53;100739.47;;;1.33;51.08
73633;BME280;61927;50.080;14.418;2023-02-28T09:16:21;100741.19;;;1.36;50.65
73633;BME280;61927;50.080;14.418;2023-02-28T09:18:47;100742.94;;;1.38;50.87
73633;BME280;61927;50.080;14.418;2023-02-28T09:21:16;100747.28;;;1.44;51.52
73633;BME280;61927;50.080;14.418;2023-02-28T09:23:43;100740.28;;;1.49;50.30
73633;BME280;61927;50.080;14.418;2023-02-28T09:26:18;100733.28;;;1.54;50.23
73633;BME280;61927;50.080;14.418;2023-02-28T09:28:45;100741.09;;;1.60;48.56
73633;BME280;61927;50.080;14.418;2023-02-28T09:31:16;100730.69;;;1.51;48.87
73633;BME280;61927;50.080;14.418;2023-02-28T09:33:47;100734.16;;;1.54;49.32
73633;BME280;61927;50.080;14.418;2023-02-28T09:36:13;100734.13;;;1.60;49.95
73633;BME280;61927;50.080;14.418;2023-02-28T09:38:38;100733.16;;;1.77;49.16
73633;BME280;61927;50.080;14.418;2023-02-28T09:41:13;100736.63;;;1.79;48.48
73633;BME280;61927;50.080;14.418;2023-02-28T09:43:43;100731.41;;;1.80;48.70
73633;BME280;61927;50.080;14.418;2023-02-28T09:46:40;100737.47;;;1.84;48.10
73633;BME280;61927;50.080;14.418;2023-02-28T09:49:14;100736.59;;;1.86;48.36
73633;BME280;61927;50.080;14.418;2023-02-28T09:51:49;100737.41;;;1.96;48.11
73633;BME280;61927;50.080;14.418;2023-02-28T09:54:20;100740.00;;;2.01;47.50
73633;BME280;61927;50.080;14.418;2023-02-28T09:56:58;100733.84;;;2.06;47.45
73633;BME280;61927;50.080;14.418;2023-02-28T09:59:39;100735.56;;;2.09;47.95
73633;BME280;61927;50.080;14.418;2023-02-28T10:02:46;100737.28;;;2.16;47.66
73633;BME280;61927;50.080;14.418;2023-02-28T10:05:19;100739.84;;;2.22;47.24
73633;BME280;61927;50.080;14.418;2023-02-28T10:08:05;100737.16;;;2.31;47.31
73633;BME280;61927;50.080;14.418;2023-02-28T10:10:45;100740.59;;;2.39;46.79
73633;BME280;61927;50.080;14.418;2023-02-28T10:13:26;100739.72;;;2.39;47.06
73633;BME280;61927;50.080;14.418;2023-02-28T10:16:01;100729.25;;;2.39;46.06
73633;BME280;61927;50.080;14.418;2023-02-28T10:18:51;100738.88;;;2.35;47.44
73633;BME280;61927;50.080;14.418;2023-02-28T10:21:23;100737.06;;;2.42;46.33
73633;BME280;61927;50.080;14.418;2023-02-28T10:23:53;100737.91;;;2.45;46.67
73633;BME280;61927;50.080;14.418;2023-02-28T10:26:22;100732.59;;;2.53;46.76
73633;BME280;61927;50.080;14.418;2023-02-28T10:28:52;100719.44;;;2.62;46.76
73633;BME280;61927;50.080;14.418;2023-02-28T10:31:19;100733.41;;;2.61;46.41
73633;BME280;61927;50.080;14.418;2023-02-28T10:33:45;100741.22;;;2.66;46.59
73633;BME280;61927;50.080;14.418;2023-02-28T10:36:17;100728.13;;;2.67;46.74
73633;BME280;61927;50.080;14.418;2023-02-28T10:38:45;100724.59;;;2.70;46.25
73633;BME280;61927;50.080;14.418;2023-02-28T10:41:31;100723.59;;;2.83;46.74
73633;BME280;61927;50.080;14.418;2023-02-28T10:44:21;100724.44;;;2.86;45.96
73633;BME280;61927;50.080;14.418;2023-02-28T10:46:48;100716.66;;;2.79;46.40
73633;BME280;61927;50.080;14.418;2023-02-28T10:49:20;100718.38;;;2.81;46.65
73633;BME280;61927;50.080;14.418;2023-02-28T10:51:49;100723.53;;;2.87;46.37
73633;BME280;61927;50.080;14.418;2023-02-28T10:54:20;100717.53;;;2.78;45.71
73633;BME280;61927;50.080;14.418;2023-02-28T10:57:19;100711.47;;;2.73;46.26
73633;BME280;61927;50.080;14.418;2023-02-28T10:59:51;100719.28;;;2.76;46.17
73633;BME280;61927;50.080;14.418;2023-02-28T11:02:34;100704.38;;;2.81;46.58
73633;BME280;61927;50.080;14.418;2023-02-28T11:05:01;100714.72;;;2.95;47.05
73633;BME280;61927;50.080;14.418;2023-02-28T11:07:27;100712.91;;;3.01;46.68
73633;BME280;61927;50.080;14.418;2023-02-28T11:09:57;100711.97;;;3.08;46.56
73633;BME280;61927;50.080;14.418;2023-02-28T11:12:31;100711.06;;;3.09;46.29
73633;BME280;61927;50.080;14.418;2023-02-28T11:15:26;100716.25;;;3.15;46.44
73633;BME280;61927;50.080;14.418;2023-02-28T11:18:02;100702.19;;;3.22;46.43
73633;BME280;61927;50.080;14.418;2023-02-28T11:20:31;100709.94;;;3.30;46.06
73633;BME280;61927;50.080;14.418;2023-02-28T11:23:01;100706.47;;;3.30;46.05
73633;BME280;61927;50.080;14.418;2023-02-28T11:25:31;100703.81;;;3.31;46.43
73633;BME280;61927;50.080;14.418;2023-02-28T11:28:02;100699.41;;;3.33;45.80
73633;BME280;61927;50.080;14.418;2023-02-28T11:30:33;100694.13;;;3.38;45.35
73633;BME280;61927;50.080;14.418;2023-02-28T11:33:00;100699.28;;;3.44;45.94
73633;BME280;61927;50.080;14.418;2023-02-28T11:35:33;100704.41;;;3.53;45.46
73633;BME280;61927;50.080;14.418;2023-02-28T11:38:00;100694.75;;;3.55;44.59
73633;BME280;61927;50.080;14.418;2023-02-28T11:45:59;100680.97;;;3.41;44.29
73633;BME280;61927;50.080;14.418;2023-02-28T11:49:02;100683.47;;;3.48;44.98
73633;BME280;61927;50.080;14.418;2023-02-28T11:51:47;100680.75;;;3.56;44.41
73633;BME280;61927;50.080;14.418;2023-02-28T12:00:06;100667.25;;;3.83;44.69
73633;BME280;61927;50.080;14.418;2023-02-28T12:10:24;100652.13;;;3.98;44.71
73633;BME280;61927;50.080;14.418;2023-02-28T12:13:32;100657.22;;;4.08;45.01
73633;BME280;61927;50.080;14.418;2023-02-28T12:19:04;100654.56;;;4.10;43.44
73633;BME280;61927;50.080;14.418;2023-02-28T12:26:49;100644.84;;;4.15;43.23
73633;BME280;61927;50.080;14.418;2023-02-28T12:29:25;100644.84;;;4.15;44.28
73633;BME280;61927;50.080;14.418;2023-02-28T12:32:32;100643.06;;;4.17;44.17
73633;BME280;61927;50.080;14.418;2023-02-28T12:35:02;100638.72;;;4.16;43.09
73633;BME280;61927;50.080;14.418;2023-02-28T12:37:43;100637.84;;;4.15;43.12
73633;BME280;61927;50.080;14.418;2023-02-28T12:40:41;100630.97;;;4.08;43.23
73633;BME280;61927;50.080;14.418;2023-02-28T12:43:09;100636.09;;;4.16;43.57
73633;BME280;61927;50.080;14.418;2023-02-28T12:45:42;100639.53;;;4.18;43.62
73633;BME280;61927;50.080;14.418;2023-02-28T12:48:47;100641.19;;;4.24;43.52
73633;BME280;61927;50.080;14.418;2023-02-28T12:51:08;100633.91;;;4.39;43.99
73633;BME280;61927;50.080;14.418;2023-02-28T12:56:19;100635.81;;;4.31;42.99
73633;BME280;61927;50.080;14.418;2023-02-28T12:58:56;100622.56;;;4.37;43.02
73633;BME280;61927;50.080;14.418;2023-02-28T13:04:47;100628.66;;;4.39;43.22
73633;BME280;61927;50.080;14.418;2023-02-28T13:10:04;100628.66;;;4.39;43.34
73633;BME280;61927;50.080;14.418;2023-02-28T13:12:32;100625.88;;;4.48;42.68
73633;BME280;61927;50.080;14.418;2023-02-28T13:15:27;100621.69;;;4.37;42.78
73633;BME280;61927;50.080;14.418;2023-02-28T13:17:56;100626.97;;;4.37;43.17
73633;BME280;61927;50.080;14.418;2023-02-28T13:20:29;100621.56;;;4.44;42.62
73633;BME280;61927;50.080;14.418;2023-02-28T13:22:56;100623.31;;;4.44;42.36
73633;BME280;61927;50.080;14.418;2023-02-28T13:27:53;100615.38;;;4.48;43.37
73633;BME280;61927;50.080;14.418;2023-02-28T13:35:47;100608.25;;;4.53;41.43
73633;BME280;61927;50.080;14.418;2023-02-28T13:38:17;100612.72;;;4.50;43.30
73633;BME280;61927;50.080;14.418;2023-02-28T13:40:46;100616.22;;;4.49;42.71
73633;BME280;61927;50.080;14.418;2023-02-28T13:43:16;100616.25;;;4.47;42.67
73633;BME280;61927;50.080;14.418;2023-02-28T13:46:10;100610.13;;;4.47;43.50
73633;BME280;61927;50.080;14.418;2023-02-28T13:48:37;100606.56;;;4.51;43.10
73633;BME280;61927;50.080;14.418;2023-02-28T13:54:04;100602.91;;;4.58;42.72
73633;BME280;61927;50.080;14.418;2023-02-28T13:56:45;100599.31;;;4.62;42.23
73633;BME280;61927;50.080;14.418;2023-02-28T14:00:16;100599.31;;;4.64;42.20
73633;BME280;61927;50.080;14.418;2023-02-28T14:02:44;100600.84;;;4.74;41.96
73633;BME280;61927;50.080;14.418;2023-02-28T14:05:19;100600.91;;;4.71;42.15
73633;BME280;61927;50.080;14.418;2023-02-28T14:07:56;100593.03;;;4.71;41.97
73633;BME280;61927;50.080;14.418;2023-02-28T14:10:37;100597.53;;;4.64;42.10
73633;BME280;61927;50.080;14.418;2023-02-28T14:13:12;100599.38;;;4.59;42.83
73633;BME280;61927;50.080;14.418;2023-02-28T14:15:41;100605.44;;;4.64;42.11
73633;BME280;61927;50.080;14.418;2023-02-28T14:18:36;100606.34;;;4.62;42.75
73633;BME280;61927;50.080;14.418;2023-02-28T14:21:14;100597.56;;;4.63;42.46